CYPX

Details ICAO CYPX (YPX)
Name PUVIRNITUQ
Region Canada
Timezone America/Montreal (UTC-5.0)
Plans Departing 9
Arriving 9
Stats Elevation 74 ft / 23 m (AMSL)
Location 60.050418° -77.286945°
Runways 1
Magnetic Variation 19.951° W
Sunrise 2017-12-12 14:04:57 UTC / 2017-12-12 09:04:57 Local
Sunset 2017-12-12 20:03:52 UTC / 2017-12-12 15:03:52 Local
Advertisement - Login to hide

Runways

ID Width Length Bearing (true) Bearing (mag) Surface Threshold Offset Overrun Length
01 100 ft / 30 m 4,971 ft / 1,515 m 343.44° 3.39° Gravel 0 ft / 0 m 0 ft / 0 m
19 100 ft / 30 m 4,971 ft / 1,515 m 163.44° 183.39° Gravel 0 ft / 0 m 0 ft / 0 m

Map

Weather


0- 5 10 15 20 25 30 35+ Temperature / ° C

Clouds and Precipitation
Forecast for 2017-12-13 00:00 UTC. Updated an hour ago

Ground ~20,000 ft ~40,000 ft Winds

METAR

CYPX 122200Z AUTO 18010KT 8SM -SN BKN015 OVC023 M13/M15 A2977 RMK SLP087

TAF

TAF CYPX 121738Z 1218/1306 26012KT P6SM -SN SCT020 OVC040 TEMPO 1218/1306 21012KT 2SM -SHSN BKN008 OVC020 BECMG 1301/1303 17015KT RMK FCST BASED ON AUTO OBS. NXT FCST BY 130000Z

Frequencies

Unicom 122.10 MHz CTAF MF
Tower 122.10 MHz AFLD RDO
Warning: Do not use this data for real-world aviation or navigation. No guarantee of current accuracy is given.